createdAt,value
2024-04-09T00:18:21.740Z,16.42
2024-04-09T00:38:23.131Z,15.89
2024-04-09T00:58:24.363Z,15.47
2024-04-09T01:18:25.706Z,15.57
2024-04-09T01:38:26.964Z,15.25
2024-04-09T01:58:28.169Z,14.91
2024-04-09T02:18:29.412Z,14.87
2024-04-09T02:38:30.716Z,14.45
2024-04-09T02:58:31.875Z,14.11
2024-04-09T03:18:33.152Z,14.18
2024-04-09T03:38:34.503Z,13.84
2024-04-09T03:58:35.712Z,13.57
2024-04-09T04:18:37.130Z,13.71
2024-04-09T04:38:40.137Z,13.43
2024-04-09T04:58:41.334Z,13.29
2024-04-09T05:18:43.010Z,13.66
2024-04-09T05:38:44.335Z,14.34
2024-04-09T05:58:45.575Z,15.01
2024-04-09T06:18:46.903Z,15.45
2024-04-09T06:38:48.148Z,15.97
2024-04-09T06:58:49.559Z,16.82
2024-04-09T07:18:50.766Z,17.42
2024-04-09T07:38:52.046Z,17.95
2024-04-09T07:58:55.276Z,18.70
2024-04-09T08:18:56.720Z,19.72
2024-04-09T08:38:58.639Z,20.43
2024-04-09T08:58:59.935Z,21.13
2024-04-09T09:19:01.348Z,21.95
2024-04-09T09:39:02.782Z,22.79
2024-04-09T09:59:04.233Z,23.51
2024-04-09T10:19:05.726Z,24.26
2024-04-09T10:39:07.068Z,24.93
2024-04-09T10:59:08.396Z,25.49
2024-04-09T11:19:09.687Z,26.00
2024-04-09T11:39:11.061Z,26.49
2024-04-09T11:59:12.386Z,26.97
2024-04-09T12:19:13.823Z,27.57
2024-04-09T12:39:15.520Z,28.16
2024-04-09T12:59:22.807Z,28.52
2024-04-09T13:19:31.850Z,28.77
2024-04-09T13:39:33.195Z,29.21
2024-04-09T13:59:34.525Z,29.24
2024-04-09T14:19:35.793Z,29.36
2024-04-09T14:39:37.041Z,29.20
2024-04-09T14:59:38.327Z,29.22
2024-04-09T15:19:39.773Z,29.03
2024-04-09T15:39:41.083Z,28.98
2024-04-09T15:59:42.304Z,28.76
2024-04-09T16:19:43.658Z,28.00
2024-04-09T16:39:45.211Z,26.99
2024-04-09T16:59:46.549Z,26.12
2024-04-09T17:19:47.804Z,25.27
2024-04-09T17:39:49.120Z,24.24
2024-04-09T17:59:50.325Z,23.15
2024-04-09T18:19:51.618Z,22.11
2024-04-09T18:39:53.874Z,21.17
2024-04-09T18:59:56.280Z,20.35
2024-04-09T19:19:57.557Z,19.55
2024-04-09T19:39:58.888Z,18.91
2024-04-09T20:00:01.972Z,18.38
2024-04-09T20:20:03.809Z,17.93
2024-04-09T20:40:05.121Z,17.53
2024-04-09T21:00:06.284Z,17.20
2024-04-09T21:20:07.524Z,16.86
2024-04-09T21:40:08.816Z,16.74
2024-04-09T22:00:10.003Z,17.14
2024-04-09T22:20:11.214Z,16.71
2024-04-09T22:40:12.619Z,16.18
2024-04-09T23:00:13.832Z,15.78
2024-04-09T23:20:15.283Z,15.36
2024-04-09T23:40:16.611Z,14.95
